Westlake, Texas
Current Conditions -  °F | °C
As of 2:53 PM on Friday 28 Nov 2014 (Local Time) from KAFW Reporting Station
Few Clouds Few Clouds  
Wind Chill: 69°   Ceiling: Unl
Heat Index: 69°   Visibility: 10mi
Dew Point: 47°   Wind: 15mph
Humidity: 45%   Direction: 200°SSW
Pressure: 30.03"   Gusts: 24mph
Location:  32.996°N, 97.2275°W
Report Text: KAFW 282053Z 20013G21KT 10SM FEW250 21/08 A3003 RMK AO2 PK WND 21026/2030 SLP167 T02060083 56035 $
Loading
Personal Weather Stations






























Interactive Weather Map New forecast layout! Learn more

10-Day Weather Forecast

Advertisements
Track Severe Weather on mobile